Chascomus, Argentina
Current Conditions -  °F | °C
As of 10:00 PM on Friday 28 Nov 2014 (Local Time) from SAEZ Reporting Station
Clear Clear  
Wind Chill: 79°   Ceiling: Unl
Heat Index: 79°   Visibility: 6mi
Dew Point: 46°   Wind: 14mph
Humidity: 32%   Direction: 50°NE
Pressure: 29.85"   Gusts: NA
Location:  35.58°S, 58.02°W
Report Text: SAEZ 290100Z 05012KT CAVOK 26/08 Q1011
Loading
Personal Weather Stations






























Interactive Weather Map New forecast layout! Learn more

10-Day Weather Forecast

Advertisements
Track Severe Weather on mobile